sensor_id;sensor_type;location;lat;lon;timestamp;pressure;altitude;pressure_sealevel;temperature;humidity
63500;BME280;49654;51.142;14.924;2023-09-19T00:00:19;98476.34;;;18.45;98.48
63500;BME280;49654;51.142;14.924;2023-09-19T00:02:52;98480.72;;;18.57;98.26
63500;BME280;49654;51.142;14.924;2023-09-19T00:05:19;98474.44;;;18.41;98.17
63500;BME280;49654;51.142;14.924;2023-09-19T00:07:50;98467.13;;;18.43;99.25
63500;BME280;49654;51.142;14.924;2023-09-19T00:10:20;98443.03;;;18.29;99.09
63500;BME280;49654;51.142;14.924;2023-09-19T00:12:49;98478.47;;;18.65;99.08
63500;BME280;49654;51.142;14.924;2023-09-19T00:15:18;98480.31;;;18.65;98.50
63500;BME280;49654;51.142;14.924;2023-09-19T00:17:46;98432.25;;;18.31;97.25
63500;BME280;49654;51.142;14.924;2023-09-19T00:20:13;98373.50;;;17.81;98.13
63500;BME280;49654;51.142;14.924;2023-09-19T00:22:43;98396.25;;;17.92;98.62
63500;BME280;49654;51.142;14.924;2023-09-19T00:25:11;98475.75;;;18.38;99.66
63500;BME280;49654;51.142;14.924;2023-09-19T00:27:41;98466.44;;;18.31;99.71
63500;BME280;49654;51.142;14.924;2023-09-19T00:30:09;98442.00;;;18.13;100.00
63500;BME280;49654;51.142;14.924;2023-09-19T00:32:42;98478.97;;;18.45;99.73
63500;BME280;49654;51.142;14.924;2023-09-19T00:35:10;98433.88;;;18.15;99.18
63500;BME280;49654;51.142;14.924;2023-09-19T00:37:37;98413.25;;;18.07;98.83
63500;BME280;49654;51.142;14.924;2023-09-19T00:40:06;98375.91;;;17.83;98.89
63500;BME280;49654;51.142;14.924;2023-09-19T00:42:36;98483.94;;;18.42;99.41
63500;BME280;49654;51.142;14.924;2023-09-19T00:45:05;98440.16;;;18.14;99.13
63500;BME280;49654;51.142;14.924;2023-09-19T00:47:35;98328.16;;;17.52;98.71
63500;BME280;49654;51.142;14.924;2023-09-19T00:50:05;98462.91;;;18.42;97.75
63500;BME280;49654;51.142;14.924;2023-09-19T00:52:34;98461.00;;;18.37;96.40
63500;BME280;49654;51.142;14.924;2023-09-19T00:55:02;98471.25;;;18.56;96.39
63500;BME280;49654;51.142;14.924;2023-09-19T00:57:30;98446.03;;;18.38;95.61
63500;BME280;49654;51.142;14.924;2023-09-19T01:00:00;98478.94;;;18.62;95.77
63500;BME280;49654;51.142;14.924;2023-09-19T01:02:31;98474.03;;;18.49;96.20
63500;BME280;49654;51.142;14.924;2023-09-19T01:04:58;98436.47;;;18.32;96.05
63500;BME280;49654;51.142;14.924;2023-09-19T01:07:28;98473.63;;;18.57;96.14
63500;BME280;49654;51.142;14.924;2023-09-19T01:09:56;98467.44;;;18.46;96.08
63500;BME280;49654;51.142;14.924;2023-09-19T01:12:45;98387.41;;;17.98;95.58
63500;BME280;49654;51.142;14.924;2023-09-19T01:15:21;98456.03;;;18.41;96.01
63500;BME280;49654;51.142;14.924;2023-09-19T01:18:02;98476.03;;;18.59;95.34
63500;BME280;49654;51.142;14.924;2023-09-19T01:20:37;98479.88;;;18.51;94.83
63500;BME280;49654;51.142;14.924;2023-09-19T01:23:15;98449.47;;;18.38;94.97
63500;BME280;49654;51.142;14.924;2023-09-19T01:26:02;98450.25;;;18.39;94.49
63500;BME280;49654;51.142;14.924;2023-09-19T01:28:42;98440.47;;;18.34;94.40
63500;BME280;49654;51.142;14.924;2023-09-19T01:31:14;98468.31;;;18.52;94.16
63500;BME280;49654;51.142;14.924;2023-09-19T01:33:58;98466.00;;;18.56;94.93
63500;BME280;49654;51.142;14.924;2023-09-19T01:36:32;98439.34;;;18.30;95.48
63500;BME280;49654;51.142;14.924;2023-09-19T01:39:05;98468.31;;;18.52;95.12
63500;BME280;49654;51.142;14.924;2023-09-19T01:41:51;98465.66;;;18.52;94.41
63500;BME280;49654;51.142;14.924;2023-09-19T01:44:25;98469.78;;;18.65;93.64
63500;BME280;49654;51.142;14.924;2023-09-19T01:46:58;98459.69;;;18.57;94.36
63500;BME280;49654;51.142;14.924;2023-09-19T01:49:33;98418.13;;;18.37;94.22
63500;BME280;49654;51.142;14.924;2023-09-19T01:52:08;98460.00;;;18.60;93.78
63500;BME280;49654;51.142;14.924;2023-09-19T01:54:44;98471.97;;;18.51;93.97
63500;BME280;49654;51.142;14.924;2023-09-19T01:57:16;98451.28;;;18.38;93.88
63500;BME280;49654;51.142;14.924;2023-09-19T01:59:48;98349.00;;;17.75;93.42
63500;BME280;49654;51.142;14.924;2023-09-19T02:02:19;98453.41;;;18.41;93.59
63500;BME280;49654;51.142;14.924;2023-09-19T02:04:48;98441.25;;;18.35;93.96
63500;BME280;49654;51.142;14.924;2023-09-19T02:07:16;98448.88;;;18.36;93.79
63500;BME280;49654;51.142;14.924;2023-09-19T02:09:43;98460.34;;;18.47;94.22
63500;BME280;49654;51.142;14.924;2023-09-19T02:12:10;98460.19;;;18.37;94.60
63500;BME280;49654;51.142;14.924;2023-09-19T02:14:37;98362.28;;;17.69;95.44
63500;BME280;49654;51.142;14.924;2023-09-19T02:17:04;98469.88;;;18.53;94.02
63500;BME280;49654;51.142;14.924;2023-09-19T02:19:34;98442.91;;;18.41;93.69
63500;BME280;49654;51.142;14.924;2023-09-19T02:22:02;98424.91;;;18.33;93.46
63500;BME280;49654;51.142;14.924;2023-09-19T02:24:33;98401.06;;;18.17;93.29
63500;BME280;49654;51.142;14.924;2023-09-19T02:27:00;98464.63;;;18.53;93.88
63500;BME280;49654;51.142;14.924;2023-09-19T02:29:30;98442.38;;;18.39;93.22
63500;BME280;49654;51.142;14.924;2023-09-19T02:31:57;98476.59;;;18.44;93.47
63500;BME280;49654;51.142;14.924;2023-09-19T02:34:24;98465.16;;;18.33;94.32
63500;BME280;49654;51.142;14.924;2023-09-19T02:36:53;98462.63;;;18.21;95.02
63500;BME280;49654;51.142;14.924;2023-09-19T02:39:20;98426.25;;;17.96;94.39
63500;BME280;49654;51.142;14.924;2023-09-19T02:41:48;98445.03;;;18.05;95.30
63500;BME280;49654;51.142;14.924;2023-09-19T02:44:15;98429.03;;;17.73;96.12
63500;BME280;49654;51.142;14.924;2023-09-19T02:46:42;98478.47;;;18.10;96.65
63500;BME280;49654;51.142;14.924;2023-09-19T02:49:09;98455.09;;;17.91;96.32
63500;BME280;49654;51.142;14.924;2023-09-19T02:51:36;98395.38;;;17.53;96.58
63500;BME280;49654;51.142;14.924;2023-09-19T02:54:05;98398.31;;;17.57;96.36
63500;BME280;49654;51.142;14.924;2023-09-19T02:56:32;98475.78;;;18.05;95.84
63500;BME280;49654;51.142;14.924;2023-09-19T02:59:01;98427.34;;;17.67;96.42
63500;BME280;49654;51.142;14.924;2023-09-19T03:01:29;98485.50;;;18.04;96.14
63500;BME280;49654;51.142;14.924;2023-09-19T03:03:56;98480.44;;;18.02;96.26
63500;BME280;49654;51.142;14.924;2023-09-19T03:06:23;98433.16;;;17.52;97.02
63500;BME280;49654;51.142;14.924;2023-09-19T03:08:50;98408.22;;;17.38;97.59
63500;BME280;49654;51.142;14.924;2023-09-19T03:11:19;98471.88;;;17.90;96.87
63500;BME280;49654;51.142;14.924;2023-09-19T03:13:51;98488.13;;;18.04;96.01
63500;BME280;49654;51.142;14.924;2023-09-19T03:16:18;98485.41;;;17.99;96.09
63500;BME280;49654;51.142;14.924;2023-09-19T03:18:47;98482.84;;;17.87;96.15
63500;BME280;49654;51.142;14.924;2023-09-19T03:21:15;98457.22;;;17.77;96.30
63500;BME280;49654;51.142;14.924;2023-09-19T03:23:43;98443.25;;;17.60;95.77
63500;BME280;49654;51.142;14.924;2023-09-19T03:26:11;98483.00;;;17.81;96.38
63500;BME280;49654;51.142;14.924;2023-09-19T03:28:41;98494.47;;;17.91;96.16
63500;BME280;49654;51.142;14.924;2023-09-19T03:31:09;98470.81;;;17.74;96.26
63500;BME280;49654;51.142;14.924;2023-09-19T03:33:36;98504.59;;;17.99;96.08
63500;BME280;49654;51.142;14.924;2023-09-19T03:36:04;98509.84;;;17.99;95.36
63500;BME280;49654;51.142;14.924;2023-09-19T03:38:32;98433.44;;;17.56;95.67
63500;BME280;49654;51.142;14.924;2023-09-19T03:41:00;98512.81;;;18.03;95.27
63500;BME280;49654;51.142;14.924;2023-09-19T03:43:27;98512.22;;;18.01;94.55
63500;BME280;49654;51.142;14.924;2023-09-19T03:45:55;98456.31;;;17.72;94.26
63500;BME280;49654;51.142;14.924;2023-09-19T03:48:23;98514.84;;;18.01;94.85
63500;BME280;49654;51.142;14.924;2023-09-19T03:50:50;98514.38;;;18.04;94.53
63500;BME280;49654;51.142;14.924;2023-09-19T03:53:18;98515.81;;;18.12;94.03
63500;BME280;49654;51.142;14.924;2023-09-19T03:55:45;98429.47;;;17.53;93.49
63500;BME280;49654;51.142;14.924;2023-09-19T03:58:13;98410.63;;;17.39;93.68
63500;BME280;49654;51.142;14.924;2023-09-19T04:00:40;98523.22;;;18.15;93.11
63500;BME280;49654;51.142;14.924;2023-09-19T04:03:08;98515.72;;;18.23;92.53
63500;BME280;49654;51.142;14.924;2023-09-19T04:05:44;98521.16;;;18.17;91.69
63500;BME280;49654;51.142;14.924;2023-09-19T04:08:12;98518.66;;;18.10;92.69
63500;BME280;49654;51.142;14.924;2023-09-19T04:10:41;98512.78;;;18.20;91.67
63500;BME280;49654;51.142;14.924;2023-09-19T04:13:08;98524.72;;;18.27;91.11
63500;BME280;49654;51.142;14.924;2023-09-19T04:15:36;98379.44;;;17.26;91.01
63500;BME280;49654;51.142;14.924;2023-09-19T04:18:03;98525.03;;;18.14;90.97
63500;BME280;49654;51.142;14.924;2023-09-19T04:20:32;98529.97;;;18.11;91.45
63500;BME280;49654;51.142;14.924;2023-09-19T04:23:00;98535.88;;;18.01;92.04
63500;BME280;49654;51.142;14.924;2023-09-19T04:25:27;98534.59;;;18.04;91.80
63500;BME280;49654;51.142;14.924;2023-09-19T04:27:54;98533.31;;;18.06;92.07
63500;BME280;49654;51.142;14.924;2023-09-19T04:30:21;98532.19;;;18.02;91.81
63500;BME280;49654;51.142;14.924;2023-09-19T04:32:48;98541.59;;;17.98;92.33
63500;BME280;49654;51.142;14.924;2023-09-19T04:35:16;98544.47;;;17.96;92.33
63500;BME280;49654;51.142;14.924;2023-09-19T04:37:44;98549.38;;;17.93;92.36
63500;BME280;49654;51.142;14.924;2023-09-19T04:40:12;98549.69;;;17.80;93.31
63500;BME280;49654;51.142;14.924;2023-09-19T04:42:43;98551.94;;;17.88;93.09
63500;BME280;49654;51.142;14.924;2023-09-19T04:45:10;98486.66;;;17.51;92.76
63500;BME280;49654;51.142;14.924;2023-09-19T04:47:37;98548.72;;;17.86;91.86
63500;BME280;49654;51.142;14.924;2023-09-19T04:50:07;98547.34;;;17.95;92.15
63500;BME280;49654;51.142;14.924;2023-09-19T04:52:39;98553.84;;;17.92;91.15
63500;BME280;49654;51.142;14.924;2023-09-19T04:55:10;98562.38;;;17.99;90.84
63500;BME280;49654;51.142;14.924;2023-09-19T04:57:39;98566.94;;;18.04;90.56
63500;BME280;49654;51.142;14.924;2023-09-19T05:00:06;98564.09;;;17.94;90.80
63500;BME280;49654;51.142;14.924;2023-09-19T05:02:38;98551.94;;;17.88;89.70
63500;BME280;49654;51.142;14.924;2023-09-19T05:05:07;98487.84;;;17.43;89.77
63500;BME280;49654;51.142;14.924;2023-09-19T05:07:34;98564.69;;;17.96;89.51
63500;BME280;49654;51.142;14.924;2023-09-19T05:10:01;98567.31;;;17.96;89.48
63500;BME280;49654;51.142;14.924;2023-09-19T05:12:33;98579.16;;;17.98;88.66
63500;BME280;49654;51.142;14.924;2023-09-19T05:15:01;98579.47;;;18.02;88.86
63500;BME280;49654;51.142;14.924;2023-09-19T05:17:29;98576.22;;;17.95;88.83
63500;BME280;49654;51.142;14.924;2023-09-19T05:19:57;98588.28;;;18.08;88.03
63500;BME280;49654;51.142;14.924;2023-09-19T05:22:26;98592.72;;;18.24;87.67
63500;BME280;49654;51.142;14.924;2023-09-19T05:24:53;98592.91;;;18.17;86.72
63500;BME280;49654;51.142;14.924;2023-09-19T05:27:20;98587.63;;;18.17;87.26
63500;BME280;49654;51.142;14.924;2023-09-19T05:29:49;98585.66;;;18.24;86.85
63500;BME280;49654;51.142;14.924;2023-09-19T05:32:19;98591.31;;;18.33;85.93
63500;BME280;49654;51.142;14.924;2023-09-19T05:34:46;98584.63;;;18.42;85.52
63500;BME280;49654;51.142;14.924;2023-09-19T05:37:13;98561.03;;;18.31;84.51
63500;BME280;49654;51.142;14.924;2023-09-19T05:39:42;98578.06;;;18.28;84.57
63500;BME280;49654;51.142;14.924;2023-09-19T05:42:09;98582.72;;;18.21;84.11
63500;BME280;49654;51.142;14.924;2023-09-19T05:44:36;98576.50;;;18.27;83.80
63500;BME280;49654;51.142;14.924;2023-09-19T05:47:05;98583.50;;;18.38;83.70
63500;BME280;49654;51.142;14.924;2023-09-19T05:49:34;98590.75;;;18.48;82.80
63500;BME280;49654;51.142;14.924;2023-09-19T05:52:04;98595.38;;;18.41;83.08
63500;BME280;49654;51.142;14.924;2023-09-19T05:54:32;98604.94;;;18.47;82.92
63500;BME280;49654;51.142;14.924;2023-09-19T05:57:00;98605.09;;;18.57;82.15
63500;BME280;49654;51.142;14.924;2023-09-19T05:59:27;98610.28;;;18.52;81.73
63500;BME280;49654;51.142;14.924;2023-09-19T06:01:54;98573.06;;;18.26;80.71
63500;BME280;49654;51.142;14.924;2023-09-19T06:04:22;98537.94;;;17.99;80.96
63500;BME280;49654;51.142;14.924;2023-09-19T06:06:51;98579.28;;;18.37;81.10
63500;BME280;49654;51.142;14.924;2023-09-19T06:09:18;98621.25;;;18.66;80.34
63500;BME280;49654;51.142;14.924;2023-09-19T06:11:45;98607.97;;;18.56;80.27
63500;BME280;49654;51.142;14.924;2023-09-19T06:14:12;98634.84;;;18.74;80.37
63500;BME280;49654;51.142;14.924;2023-09-19T06:16:40;98626.31;;;18.67;80.08
63500;BME280;49654;51.142;14.924;2023-09-19T06:19:08;98536.59;;;18.13;78.97
63500;BME280;49654;51.142;14.924;2023-09-19T06:21:37;98590.16;;;18.63;78.65
63500;BME280;49654;51.142;14.924;2023-09-19T06:24:05;98668.22;;;19.08;78.62
63500;BME280;49654;51.142;14.924;2023-09-19T06:26:32;98662.38;;;19.06;78.11
63500;BME280;49654;51.142;14.924;2023-09-19T06:28:59;98630.03;;;18.88;78.08
63500;BME280;49654;51.142;14.924;2023-09-19T06:31:26;98662.69;;;19.09;78.18
63500;BME280;49654;51.142;14.924;2023-09-19T06:33:53;98662.25;;;18.95;77.00
63500;BME280;49654;51.142;14.924;2023-09-19T06:36:20;98634.03;;;18.74;78.56
63500;BME280;49654;51.142;14.924;2023-09-19T06:38:49;98660.97;;;18.98;78.70
63500;BME280;49654;51.142;14.924;2023-09-19T06:41:17;98666.78;;;19.00;77.48
63500;BME280;49654;51.142;14.924;2023-09-19T06:43:45;98606.28;;;18.66;77.56
63500;BME280;49654;51.142;14.924;2023-09-19T06:46:12;98673.09;;;18.99;77.40
63500;BME280;49654;51.142;14.924;2023-09-19T06:48:39;98672.28;;;18.98;77.08
63500;BME280;49654;51.142;14.924;2023-09-19T06:51:07;98679.59;;;19.13;77.40
63500;BME280;49654;51.142;14.924;2023-09-19T06:53:34;98694.59;;;19.13;76.31
63500;BME280;49654;51.142;14.924;2023-09-19T06:56:03;98691.22;;;19.17;76.13
63500;BME280;49654;51.142;14.924;2023-09-19T06:58:31;98692.22;;;19.11;76.02
63500;BME280;49654;51.142;14.924;2023-09-19T07:00:58;98700.72;;;19.18;76.71
63500;BME280;49654;51.142;14.924;2023-09-19T07:03:25;98706.63;;;19.25;76.36
63500;BME280;49654;51.142;14.924;2023-09-19T07:05:54;98692.97;;;19.29;75.96
63500;BME280;49654;51.142;14.924;2023-09-19T07:08:21;98700.59;;;19.47;76.38
63500;BME280;49654;51.142;14.924;2023-09-19T07:10:48;98699.06;;;19.51;75.04
63500;BME280;49654;51.142;14.924;2023-09-19T07:13:19;98665.22;;;19.21;75.29
63500;BME280;49654;51.142;14.924;2023-09-19T07:15:46;98702.81;;;19.55;75.58
63500;BME280;49654;51.142;14.924;2023-09-19T07:18:16;98704.59;;;19.49;74.31
63500;BME280;49654;51.142;14.924;2023-09-19T07:20:44;98704.88;;;19.70;75.37
63500;BME280;49654;51.142;14.924;2023-09-19T07:23:15;98713.22;;;19.84;74.11
63500;BME280;49654;51.142;14.924;2023-09-19T07:25:42;98717.06;;;19.76;74.23
63500;BME280;49654;51.142;14.924;2023-09-19T07:28:09;98714.22;;;19.83;72.91
63500;BME280;49654;51.142;14.924;2023-09-19T07:30:37;98726.97;;;19.91;71.73
63500;BME280;49654;51.142;14.924;2023-09-19T07:33:05;98728.69;;;20.02;71.70
63500;BME280;49654;51.142;14.924;2023-09-19T07:35:32;98733.16;;;20.23;71.30
63500;BME280;49654;51.142;14.924;2023-09-19T07:38:00;98713.50;;;20.09;68.78
63500;BME280;49654;51.142;14.924;2023-09-19T07:40:28;98731.81;;;19.99;68.81
63500;BME280;49654;51.142;14.924;2023-09-19T07:42:55;98721.16;;;19.89;67.88
63500;BME280;49654;51.142;14.924;2023-09-19T07:45:22;98725.44;;;19.95;66.86
63500;BME280;49654;51.142;14.924;2023-09-19T07:47:52;98735.81;;;20.01;67.80
63500;BME280;49654;51.142;14.924;2023-09-19T07:50:19;98732.25;;;19.91;67.52
63500;BME280;49654;51.142;14.924;2023-09-19T07:52:47;98743.16;;;19.99;68.41
63500;BME280;49654;51.142;14.924;2023-09-19T07:55:16;98741.31;;;19.78;66.70
63500;BME280;49654;51.142;14.924;2023-09-19T07:57:45;98752.78;;;19.89;67.84
63500;BME280;49654;51.142;14.924;2023-09-19T08:00:13;98764.97;;;19.95;68.46
63500;BME280;49654;51.142;14.924;2023-09-19T08:02:40;98726.03;;;19.75;68.23
63500;BME280;49654;51.142;14.924;2023-09-19T08:05:10;98748.31;;;20.11;68.26
63500;BME280;49654;51.142;14.924;2023-09-19T08:07:42;98764.47;;;20.20;68.37
63500;BME280;49654;51.142;14.924;2023-09-19T08:10:10;98721.34;;;20.26;67.64
63500;BME280;49654;51.142;14.924;2023-09-19T08:12:38;98775.19;;;20.57;66.16
63500;BME280;49654;51.142;14.924;2023-09-19T08:15:12;98773.47;;;20.46;65.93
63500;BME280;49654;51.142;14.924;2023-09-19T08:17:40;98776.19;;;20.51;67.19
63500;BME280;49654;51.142;14.924;2023-09-19T08:20:08;98771.06;;;20.66;65.94
63500;BME280;49654;51.142;14.924;2023-09-19T08:22:47;98772.25;;;20.81;66.18
63500;BME280;49654;51.142;14.924;2023-09-19T08:25:15;98779.81;;;20.72;64.27
63500;BME280;49654;51.142;14.924;2023-09-19T08:27:44;98776.50;;;20.82;64.05
63500;BME280;49654;51.142;14.924;2023-09-19T08:30:14;98774.75;;;20.65;63.58
63500;BME280;49654;51.142;14.924;2023-09-19T08:32:41;98776.72;;;20.80;63.86
63500;BME280;49654;51.142;14.924;2023-09-19T08:35:09;98780.22;;;20.59;63.70
63500;BME280;49654;51.142;14.924;2023-09-19T08:37:36;98773.66;;;20.61;65.18
63500;BME280;49654;51.142;14.924;2023-09-19T08:40:06;98784.41;;;20.82;64.51
63500;BME280;49654;51.142;14.924;2023-09-19T08:42:47;98786.22;;;21.08;63.48
63500;BME280;49654;51.142;14.924;2023-09-19T08:45:15;98787.34;;;21.17;62.44
63500;BME280;49654;51.142;14.924;2023-09-19T08:47:46;98712.59;;;20.25;62.00
63500;BME280;49654;51.142;14.924;2023-09-19T08:50:19;98714.84;;;20.61;62.46
63500;BME280;49654;51.142;14.924;2023-09-19T08:52:47;98718.44;;;20.82;60.95
63500;BME280;49654;51.142;14.924;2023-09-19T08:55:18;98783.56;;;21.08;61.22
63500;BME280;49654;51.142;14.924;2023-09-19T08:57:49;98767.34;;;21.26;58.96
63500;BME280;49654;51.142;14.924;2023-09-19T09:00:16;98798.81;;;21.70;57.88
63500;BME280;49654;51.142;14.924;2023-09-19T09:02:46;98787.84;;;21.99;56.48
63500;BME280;49654;51.142;14.924;2023-09-19T09:05:16;98785.91;;;22.37;56.05
63500;BME280;49654;51.142;14.924;2023-09-19T09:07:49;98792.72;;;22.17;51.14
63500;BME280;49654;51.142;14.924;2023-09-19T09:10:18;98779.28;;;22.34;50.07
63500;BME280;49654;51.142;14.924;2023-09-19T09:12:48;98802.00;;;22.30;52.42
63500;BME280;49654;51.142;14.924;2023-09-19T09:15:19;98795.19;;;22.44;51.02
63500;BME280;49654;51.142;14.924;2023-09-19T09:17:47;98793.13;;;22.77;52.31
63500;BME280;49654;51.142;14.924;2023-09-19T09:20:16;98778.88;;;22.98;52.99
63500;BME280;49654;51.142;14.924;2023-09-19T09:22:50;98811.59;;;22.57;51.93
63500;BME280;49654;51.142;14.924;2023-09-19T09:25:19;98818.03;;;22.08;50.56
63500;BME280;49654;51.142;14.924;2023-09-19T09:27:58;98824.66;;;22.06;50.94
63500;BME280;49654;51.142;14.924;2023-09-19T09:30:33;98823.66;;;21.69;51.77
63500;BME280;49654;51.142;14.924;2023-09-19T09:33:10;98826.44;;;21.53;52.10
63500;BME280;49654;51.142;14.924;2023-09-19T09:35:50;98831.63;;;21.37;52.54
63500;BME280;49654;51.142;14.924;2023-09-19T09:38:19;98840.34;;;21.38;53.26
63500;BME280;49654;51.142;14.924;2023-09-19T09:40:49;98824.34;;;21.55;53.03
63500;BME280;49654;51.142;14.924;2023-09-19T09:43:30;98836.44;;;21.88;53.35
63500;BME280;49654;51.142;14.924;2023-09-19T09:46:12;98830.44;;;22.03;51.94
63500;BME280;49654;51.142;14.924;2023-09-19T09:48:58;98831.19;;;22.56;50.07
63500;BME280;49654;51.142;14.924;2023-09-19T09:51:44;98836.06;;;22.94;49.76
63500;BME280;49654;51.142;14.924;2023-09-19T09:54:24;98831.41;;;22.44;49.88
63500;BME280;49654;51.142;14.924;2023-09-19T09:56:55;98835.47;;;22.09;51.70
63500;BME280;49654;51.142;14.924;2023-09-19T09:59:43;98841.69;;;22.30;51.35
63500;BME280;49654;51.142;14.924;2023-09-19T10:02:12;98832.22;;;21.92;50.77
63500;BME280;49654;51.142;14.924;2023-09-19T10:04:40;98846.97;;;21.83;52.21
63500;BME280;49654;51.142;14.924;2023-09-19T10:07:25;98848.31;;;21.80;51.03
63500;BME280;49654;51.142;14.924;2023-09-19T10:09:53;98849.25;;;21.32;51.85
63500;BME280;49654;51.142;14.924;2023-09-19T10:12:27;98815.00;;;21.10;51.11
63500;BME280;49654;51.142;14.924;2023-09-19T10:14:57;98835.56;;;21.35;50.01
63500;BME280;49654;51.142;14.924;2023-09-19T10:17:28;98840.25;;;21.60;52.21
63500;BME280;49654;51.142;14.924;2023-09-19T10:19:56;98840.41;;;21.85;51.03
63500;BME280;49654;51.142;14.924;2023-09-19T10:22:24;98832.28;;;22.02;51.82
63500;BME280;49654;51.142;14.924;2023-09-19T10:24:53;98831.84;;;22.15;51.73
63500;BME280;49654;51.142;14.924;2023-09-19T10:27:22;98831.97;;;22.41;49.91
63500;BME280;49654;51.142;14.924;2023-09-19T10:29:53;98840.41;;;22.43;50.46
63500;BME280;49654;51.142;14.924;2023-09-19T10:32:22;98842.06;;;22.54;49.13
63500;BME280;49654;51.142;14.924;2023-09-19T10:34:49;98810.50;;;22.27;49.45
63500;BME280;49654;51.142;14.924;2023-09-19T10:37:17;98832.56;;;22.68;50.45
63500;BME280;49654;51.142;14.924;2023-09-19T10:39:46;98830.94;;;22.57;48.89
63500;BME280;49654;51.142;14.924;2023-09-19T10:42:18;98840.59;;;23.19;47.63
63500;BME280;49654;51.142;14.924;2023-09-19T10:44:47;98845.09;;;23.24;47.40
63500;BME280;49654;51.142;14.924;2023-09-19T10:47:20;98846.88;;;22.83;46.44
63500;BME280;49654;51.142;14.924;2023-09-19T10:49:50;98850.69;;;22.29;48.71
63500;BME280;49654;51.142;14.924;2023-09-19T10:52:21;98846.28;;;22.50;49.39
63500;BME280;49654;51.142;14.924;2023-09-19T10:54:52;98842.63;;;22.71;49.94
63500;BME280;49654;51.142;14.924;2023-09-19T10:57:24;98851.34;;;22.67;48.32
63500;BME280;49654;51.142;14.924;2023-09-19T11:00:03;98847.91;;;22.61;48.98
63500;BME280;49654;51.142;14.924;2023-09-19T11:03:18;98850.56;;;22.66;48.94
63500;BME280;49654;51.142;14.924;2023-09-19T11:06:02;98837.94;;;22.16;47.34
63500;BME280;49654;51.142;14.924;2023-09-19T11:08:54;98842.72;;;22.24;49.65
63500;BME280;49654;51.142;14.924;2023-09-19T11:11:44;98846.06;;;22.67;48.19
63500;BME280;49654;51.142;14.924;2023-09-19T11:14:29;98835.47;;;22.77;46.91
63500;BME280;49654;51.142;14.924;2023-09-19T11:17:30;98835.00;;;22.90;46.08
63500;BME280;49654;51.142;14.924;2023-09-19T11:20:21;98839.50;;;22.90;47.33
63500;BME280;49654;51.142;14.924;2023-09-19T11:23:18;98837.41;;;23.28;45.36
63500;BME280;49654;51.142;14.924;2023-09-19T11:25:44;98837.13;;;23.29;46.65
63500;BME280;49654;51.142;14.924;2023-09-19T11:28:34;98849.59;;;23.29;45.24
63500;BME280;49654;51.142;14.924;2023-09-19T11:34:38;98843.47;;;23.64;44.83
63500;BME280;49654;51.142;14.924;2023-09-19T11:40:28;98830.19;;;23.99;44.69
63500;BME280;49654;51.142;14.924;2023-09-19T11:42:56;98803.41;;;23.96;44.22
63500;BME280;49654;51.142;14.924;2023-09-19T11:48:28;98831.25;;;23.93;43.95
63500;BME280;49654;51.142;14.924;2023-09-19T11:50:56;98828.75;;;24.22;43.02
63500;BME280;49654;51.142;14.924;2023-09-19T11:53:31;98821.72;;;24.57;41.46
63500;BME280;49654;51.142;14.924;2023-09-19T11:55:59;98819.06;;;24.57;42.49
63500;BME280;49654;51.142;14.924;2023-09-19T11:58:27;98828.41;;;24.44;43.96
63500;BME280;49654;51.142;14.924;2023-09-19T12:00:56;98816.97;;;24.49;42.03
63500;BME280;49654;51.142;14.924;2023-09-19T12:03:29;98827.97;;;24.77;41.56
63500;BME280;49654;51.142;14.924;2023-09-19T12:05:57;98819.72;;;24.23;41.10
63500;BME280;49654;51.142;14.924;2023-09-19T12:08:26;98811.72;;;24.39;42.00
63500;BME280;49654;51.142;14.924;2023-09-19T12:10:53;98821.47;;;23.84;42.53
63500;BME280;49654;51.142;14.924;2023-09-19T12:13:21;98825.13;;;24.03;43.32
63500;BME280;49654;51.142;14.924;2023-09-19T12:15:48;98826.44;;;24.01;43.29
63500;BME280;49654;51.142;14.924;2023-09-19T12:18:27;98822.53;;;23.62;43.02
63500;BME280;49654;51.142;14.924;2023-09-19T12:20:55;98826.28;;;23.51;44.04
63500;BME280;49654;51.142;14.924;2023-09-19T12:23:23;98816.03;;;24.19;46.08
63500;BME280;49654;51.142;14.924;2023-09-19T12:25:54;98817.25;;;24.47;42.32
63500;BME280;49654;51.142;14.924;2023-09-19T12:28:26;98809.84;;;24.44;43.15
63500;BME280;49654;51.142;14.924;2023-09-19T12:30:56;98817.31;;;24.37;42.53
63500;BME280;49654;51.142;14.924;2023-09-19T12:33:23;98815.81;;;24.06;42.03
63500;BME280;49654;51.142;14.924;2023-09-19T12:35:51;98820.22;;;24.31;43.04
63500;BME280;49654;51.142;14.924;2023-09-19T12:38:24;98795.13;;;24.67;41.13
63500;BME280;49654;51.142;14.924;2023-09-19T12:40:56;98814.34;;;25.28;39.55
63500;BME280;49654;51.142;14.924;2023-09-19T12:43:24;98816.81;;;25.48;41.17
63500;BME280;49654;51.142;14.924;2023-09-19T12:45:52;98820.81;;;25.16;40.02
63500;BME280;49654;51.142;14.924;2023-09-19T12:48:21;98781.63;;;24.98;39.30
63500;BME280;49654;51.142;14.924;2023-09-19T12:51:05;98804.81;;;25.21;39.57
63500;BME280;49654;51.142;14.924;2023-09-19T12:53:34;98814.47;;;24.73;38.99
63500;BME280;49654;51.142;14.924;2023-09-19T12:56:07;98814.41;;;25.17;40.48
63500;BME280;49654;51.142;14.924;2023-09-19T12:58:48;98813.28;;;25.29;40.70
63500;BME280;49654;51.142;14.924;2023-09-19T13:01:16;98767.56;;;25.27;38.95
63500;BME280;49654;51.142;14.924;2023-09-19T13:03:43;98800.78;;;25.29;41.10
63500;BME280;49654;51.142;14.924;2023-09-19T13:06:11;98801.47;;;24.66;39.55
63500;BME280;49654;51.142;14.924;2023-09-19T13:08:39;98803.19;;;24.47;40.92
63500;BME280;49654;51.142;14.924;2023-09-19T13:11:10;98784.53;;;24.08;40.99
63500;BME280;49654;51.142;14.924;2023-09-19T13:13:40;98809.13;;;24.29;42.92
63500;BME280;49654;51.142;14.924;2023-09-19T13:16:08;98816.09;;;24.64;40.79